sensor_id;sensor_type;location;lat;lon;timestamp;pressure;altitude;pressure_sealevel;temperature;humidity
41636;BME280;27623;51.966;4.602;2023-03-20T00:00:42;64109.22;;;9.03;100.00
41636;BME280;27623;51.966;4.602;2023-03-20T00:03:11;64095.38;;;9.16;100.00
41636;BME280;27623;51.966;4.602;2023-03-20T00:05:38;64088.22;;;8.71;100.00
41636;BME280;27623;51.966;4.602;2023-03-20T00:08:06;64093.47;;;8.81;100.00
41636;BME280;27623;51.966;4.602;2023-03-20T00:10:37;64096.53;;;8.74;100.00
41636;BME280;27623;51.966;4.602;2023-03-20T00:13:04;64070.09;;;8.59;100.00
41636;BME280;27623;51.966;4.602;2023-03-20T00:15:38;64057.94;;;8.59;100.00
41636;BME280;27623;51.966;4.602;2023-03-20T00:18:17;64065.00;;;8.59;100.00
41636;BME280;27623;51.966;4.602;2023-03-20T00:20:46;64100.34;;;8.78;100.00
41636;BME280;27623;51.966;4.602;2023-03-20T00:23:12;64086.16;;;9.00;100.00
41636;BME280;27623;51.966;4.602;2023-03-20T00:25:38;64102.31;;;8.99;100.00
41636;BME280;27623;51.966;4.602;2023-03-20T00:28:36;64083.06;;;9.07;100.00
41636;BME280;27623;51.966;4.602;2023-03-20T00:33:55;64126.28;;;9.07;100.00
41636;BME280;27623;51.966;4.602;2023-03-20T00:36:24;64094.19;;;8.91;100.00
41636;BME280;27623;51.966;4.602;2023-03-20T00:38:50;64114.66;;;9.01;100.00
41636;BME280;27623;51.966;4.602;2023-03-20T00:46:54;64058.66;;;8.63;100.00
41636;BME280;27623;51.966;4.602;2023-03-20T00:49:24;64046.88;;;8.40;100.00
41636;BME280;27623;51.966;4.602;2023-03-20T00:51:50;64049.94;;;8.61;100.00
41636;BME280;27623;51.966;4.602;2023-03-20T00:54:16;64051.06;;;8.48;100.00
41636;BME280;27623;51.966;4.602;2023-03-20T00:56:44;64057.41;;;8.45;100.00
41636;BME280;27623;51.966;4.602;2023-03-20T00:59:17;64011.00;;;8.27;100.00
41636;BME280;27623;51.966;4.602;2023-03-20T01:01:44;64021.16;;;8.20;100.00
41636;BME280;27623;51.966;4.602;2023-03-20T01:04:15;64033.84;;;8.42;100.00
41636;BME280;27623;51.966;4.602;2023-03-20T01:06:42;64017.53;;;8.26;100.00
41636;BME280;27623;51.966;4.602;2023-03-20T01:09:08;64003.03;;;8.15;100.00
41636;BME280;27623;51.966;4.602;2023-03-20T01:11:34;64050.53;;;8.05;100.00
41636;BME280;27623;51.966;4.602;2023-03-20T01:14:00;64015.53;;;7.91;100.00
41636;BME280;27623;51.966;4.602;2023-03-20T01:16:26;63971.00;;;7.71;100.00
41636;BME280;27623;51.966;4.602;2023-03-20T01:18:52;63994.00;;;7.81;100.00
41636;BME280;27623;51.966;4.602;2023-03-20T01:21:19;63984.00;;;7.98;100.00
41636;BME280;27623;51.966;4.602;2023-03-20T01:23:45;64032.03;;;8.02;100.00
41636;BME280;27623;51.966;4.602;2023-03-20T01:29:03;64032.56;;;8.38;100.00
41636;BME280;27623;51.966;4.602;2023-03-20T01:31:29;64036.00;;;8.51;100.00
41636;BME280;27623;51.966;4.602;2023-03-20T01:33:55;64022.22;;;8.36;100.00
41636;BME280;27623;51.966;4.602;2023-03-20T01:36:22;64057.03;;;8.54;100.00
41636;BME280;27623;51.966;4.602;2023-03-20T01:38:53;64087.13;;;8.70;100.00
41636;BME280;27623;51.966;4.602;2023-03-20T01:41:20;64047.22;;;8.59;100.00
41636;BME280;27623;51.966;4.602;2023-03-20T01:43:47;64082.41;;;8.54;100.00
41636;BME280;27623;51.966;4.602;2023-03-20T01:53:56;64039.44;;;8.49;100.00
41636;BME280;27623;51.966;4.602;2023-03-20T01:56:23;64055.97;;;8.39;100.00
41636;BME280;27623;51.966;4.602;2023-03-20T01:58:57;64077.53;;;8.35;100.00
41636;BME280;27623;51.966;4.602;2023-03-20T02:01:26;64073.16;;;8.59;100.00
41636;BME280;27623;51.966;4.602;2023-03-20T02:03:55;64058.84;;;8.44;100.00
41636;BME280;27623;51.966;4.602;2023-03-20T02:06:24;64066.47;;;8.51;100.00
41636;BME280;27623;51.966;4.602;2023-03-20T02:08:51;64042.50;;;8.57;100.00
41636;BME280;27623;51.966;4.602;2023-03-20T02:11:22;64024.59;;;8.47;100.00
41636;BME280;27623;51.966;4.602;2023-03-20T02:13:57;64006.81;;;8.33;100.00
41636;BME280;27623;51.966;4.602;2023-03-20T02:16:23;64032.94;;;8.29;100.00
41636;BME280;27623;51.966;4.602;2023-03-20T02:18:51;64029.88;;;8.07;100.00
41636;BME280;27623;51.966;4.602;2023-03-20T02:32:45;63949.28;;;7.65;100.00
41636;BME280;27623;51.966;4.602;2023-03-20T02:43:34;63895.88;;;7.41;100.00
41636;BME280;27623;51.966;4.602;2023-03-20T02:46:10;63957.97;;;7.45;100.00
41636;BME280;27623;51.966;4.602;2023-03-20T02:49:02;63975.53;;;7.56;100.00
41636;BME280;27623;51.966;4.602;2023-03-20T02:51:39;63934.25;;;7.61;100.00
41636;BME280;27623;51.966;4.602;2023-03-20T02:56:39;63941.13;;;7.57;100.00
41636;BME280;27623;51.966;4.602;2023-03-20T02:59:29;63937.69;;;7.52;100.00
41636;BME280;27623;51.966;4.602;2023-03-20T03:02:06;63979.53;;;7.63;100.00
41636;BME280;27623;51.966;4.602;2023-03-20T03:04:37;63973.16;;;7.52;100.00
41636;BME280;27623;51.966;4.602;2023-03-20T03:07:05;63953.44;;;7.67;100.00
41636;BME280;27623;51.966;4.602;2023-03-20T03:09:40;63940.41;;;7.62;100.00
41636;BME280;27623;51.966;4.602;2023-03-20T03:12:14;63956.50;;;7.74;100.00
41636;BME280;27623;51.966;4.602;2023-03-20T03:14:46;63970.44;;;7.71;100.00
41636;BME280;27623;51.966;4.602;2023-03-20T03:17:14;63977.50;;;7.77;100.00
41636;BME280;27623;51.966;4.602;2023-03-20T03:19:44;63970.44;;;7.71;100.00
41636;BME280;27623;51.966;4.602;2023-03-20T03:22:12;63998.53;;;7.80;100.00
41636;BME280;27623;51.966;4.602;2023-03-20T03:24:45;63957.06;;;7.68;100.00
41636;BME280;27623;51.966;4.602;2023-03-20T03:27:28;63987.31;;;7.58;100.00
41636;BME280;27623;51.966;4.602;2023-03-20T03:30:00;63948.38;;;7.59;100.00
41636;BME280;27623;51.966;4.602;2023-03-20T03:32:39;63959.41;;;7.79;100.00
41636;BME280;27623;51.966;4.602;2023-03-20T03:35:14;63941.13;;;7.50;100.00
41636;BME280;27623;51.966;4.602;2023-03-20T03:38:01;63936.78;;;7.46;100.00
41636;BME280;27623;51.966;4.602;2023-03-20T03:40:43;63919.59;;;7.40;100.00
41636;BME280;27623;51.966;4.602;2023-03-20T03:43:16;63946.91;;;7.53;100.00
41636;BME280;27623;51.966;4.602;2023-03-20T03:45:50;63945.09;;;7.64;100.00
41636;BME280;27623;51.966;4.602;2023-03-20T03:48:20;63973.38;;;7.62;100.00
41636;BME280;27623;51.966;4.602;2023-03-20T03:50:52;63945.84;;;7.45;100.00
41636;BME280;27623;51.966;4.602;2023-03-20T03:53:28;63933.34;;;7.41;100.00
41636;BME280;27623;51.966;4.602;2023-03-20T03:56:02;63916.69;;;7.63;100.00
41636;BME280;27623;51.966;4.602;2023-03-20T03:58:36;63948.91;;;7.60;100.00
41636;BME280;27623;51.966;4.602;2023-03-20T04:01:05;63952.34;;;7.58;100.00
41636;BME280;27623;51.966;4.602;2023-03-20T04:03:35;63950.19;;;7.35;100.00
41636;BME280;27623;51.966;4.602;2023-03-20T04:06:02;63888.09;;;7.32;100.00
41636;BME280;27623;51.966;4.602;2023-03-20T04:08:29;63966.13;;;7.52;100.00
41636;BME280;27623;51.966;4.602;2023-03-20T04:10:54;63961.78;;;7.55;100.00
41636;BME280;27623;51.966;4.602;2023-03-20T04:13:19;63955.97;;;7.59;100.00
41636;BME280;27623;51.966;4.602;2023-03-20T04:15:45;63965.94;;;7.64;100.00
41636;BME280;27623;51.966;4.602;2023-03-20T04:18:15;63952.91;;;7.45;100.00
41636;BME280;27623;51.966;4.602;2023-03-20T04:20:42;63952.91;;;7.45;100.00
41636;BME280;27623;51.966;4.602;2023-03-20T04:23:09;63927.38;;;7.42;100.00
41636;BME280;27623;51.966;4.602;2023-03-20T04:25:35;63934.59;;;7.58;100.00
41636;BME280;27623;51.966;4.602;2023-03-20T04:28:01;63996.19;;;7.69;100.00
41636;BME280;27623;51.966;4.602;2023-03-20T04:30:26;63951.06;;;7.69;100.00
41636;BME280;27623;51.966;4.602;2023-03-20T04:32:51;63921.75;;;7.49;100.00
41636;BME280;27623;51.966;4.602;2023-03-20T04:35:19;63978.59;;;7.71;100.00
41636;BME280;27623;51.966;4.602;2023-03-20T04:37:45;63971.72;;;7.67;100.00
41636;BME280;27623;51.966;4.602;2023-03-20T04:40:11;63959.06;;;7.53;100.00
41636;BME280;27623;51.966;4.602;2023-03-20T04:42:37;63935.16;;;7.52;100.00
41636;BME280;27623;51.966;4.602;2023-03-20T04:45:03;63974.97;;;7.49;100.00
41636;BME280;27623;51.966;4.602;2023-03-20T04:47:31;63933.53;;;7.65;100.00
41636;BME280;27623;51.966;4.602;2023-03-20T04:49:58;63942.38;;;7.61;100.00
41636;BME280;27623;51.966;4.602;2023-03-20T04:52:24;63939.88;;;7.40;100.00
41636;BME280;27623;51.966;4.602;2023-03-20T04:54:49;63910.00;;;7.19;100.00
41636;BME280;27623;51.966;4.602;2023-03-20T04:57:15;63920.50;;;7.31;100.00
41636;BME280;27623;51.966;4.602;2023-03-20T04:59:41;63949.09;;;7.41;100.00
41636;BME280;27623;51.966;4.602;2023-03-20T05:02:06;63925.41;;;7.21;100.00
41636;BME280;27623;51.966;4.602;2023-03-20T05:04:31;63920.13;;;7.40;100.00
41636;BME280;27623;51.966;4.602;2023-03-20T05:06:57;63901.66;;;7.30;100.00
41636;BME280;27623;51.966;4.602;2023-03-20T05:09:22;63900.59;;;7.29;100.00
41636;BME280;27623;51.966;4.602;2023-03-20T05:11:48;63931.53;;;7.30;100.00
41636;BME280;27623;51.966;4.602;2023-03-20T05:14:13;63913.81;;;7.15;100.00
41636;BME280;27623;51.966;4.602;2023-03-20T05:16:38;63894.25;;;7.18;100.00
41636;BME280;27623;51.966;4.602;2023-03-20T05:19:06;63947.66;;;7.21;100.00
41636;BME280;27623;51.966;4.602;2023-03-20T05:21:31;63928.09;;;7.17;100.00
41636;BME280;27623;51.966;4.602;2023-03-20T05:23:57;63916.16;;;7.34;100.00
41636;BME280;27623;51.966;4.602;2023-03-20T05:26:22;63943.66;;;7.50;100.00
41636;BME280;27623;51.966;4.602;2023-03-20T05:28:48;63957.59;;;7.54;100.00
41636;BME280;27623;51.966;4.602;2023-03-20T05:31:13;63931.72;;;7.53;100.00
41636;BME280;27623;51.966;4.602;2023-03-20T05:33:46;63933.16;;;7.38;100.00
41636;BME280;27623;51.966;4.602;2023-03-20T05:36:11;63943.13;;;7.50;100.00
41636;BME280;27623;51.966;4.602;2023-03-20T05:38:39;63926.28;;;7.41;100.00
41636;BME280;27623;51.966;4.602;2023-03-20T05:41:04;63982.78;;;7.58;100.00
41636;BME280;27623;51.966;4.602;2023-03-20T05:43:32;63933.88;;;7.55;100.00
41636;BME280;27623;51.966;4.602;2023-03-20T05:45:58;63961.94;;;7.51;100.00
41636;BME280;27623;51.966;4.602;2023-03-20T05:48:23;63947.47;;;7.47;100.00
41636;BME280;27623;51.966;4.602;2023-03-20T05:50:48;63902.56;;;7.29;100.00
41636;BME280;27623;51.966;4.602;2023-03-20T05:53:14;63922.84;;;7.29;100.00
41636;BME280;27623;51.966;4.602;2023-03-20T05:55:39;63899.34;;;7.26;100.00
41636;BME280;27623;51.966;4.602;2023-03-20T05:58:06;63963.41;;;7.50;100.00
41636;BME280;27623;51.966;4.602;2023-03-20T06:00:31;63978.44;;;7.54;100.00
41636;BME280;27623;51.966;4.602;2023-03-20T06:02:57;63922.84;;;7.36;100.00
41636;BME280;27623;51.966;4.602;2023-03-20T06:05:22;63933.16;;;7.52;100.00
41636;BME280;27623;51.966;4.602;2023-03-20T06:07:48;63934.41;;;7.56;100.00
41636;BME280;27623;51.966;4.602;2023-03-20T06:10:13;64000.53;;;7.66;100.00
41636;BME280;27623;51.966;4.602;2023-03-20T06:12:38;63942.94;;;7.54;100.00
41636;BME280;27623;51.966;4.602;2023-03-20T06:15:04;63961.03;;;7.52;100.00
41636;BME280;27623;51.966;4.602;2023-03-20T06:17:30;63969.56;;;7.65;100.00
41636;BME280;27623;51.966;4.602;2023-03-20T06:19:56;63979.69;;;7.65;100.00
41636;BME280;27623;51.966;4.602;2023-03-20T06:22:21;63945.84;;;7.59;100.00
41636;BME280;27623;51.966;4.602;2023-03-20T06:24:49;63960.69;;;7.54;100.00
41636;BME280;27623;51.966;4.602;2023-03-20T06:27:15;63929.00;;;7.51;100.00
41636;BME280;27623;51.966;4.602;2023-03-20T06:29:43;63952.00;;;7.46;100.00
41636;BME280;27623;51.966;4.602;2023-03-20T06:32:08;63932.44;;;7.42;100.00
41636;BME280;27623;51.966;4.602;2023-03-20T06:34:35;63938.78;;;7.60;100.00
41636;BME280;27623;51.966;4.602;2023-03-20T06:37:00;63959.97;;;7.58;100.00
41636;BME280;27623;51.966;4.602;2023-03-20T06:39:26;63934.59;;;7.66;100.00
41636;BME280;27623;51.966;4.602;2023-03-20T06:41:54;63985.50;;;7.61;100.00
41636;BME280;27623;51.966;4.602;2023-03-20T06:44:20;63966.28;;;7.62;100.00
41636;BME280;27623;51.966;4.602;2023-03-20T06:46:45;63961.22;;;7.69;100.00
41636;BME280;27623;51.966;4.602;2023-03-20T06:49:11;63944.38;;;7.68;100.00
41636;BME280;27623;51.966;4.602;2023-03-20T06:51:38;63999.44;;;7.72;100.00
41636;BME280;27623;51.966;4.602;2023-03-20T06:54:06;63994.91;;;7.65;100.00
41636;BME280;27623;51.966;4.602;2023-03-20T06:56:32;63945.84;;;7.52;100.00
41636;BME280;27623;51.966;4.602;2023-03-20T06:58:57;63972.63;;;7.51;100.00
41636;BME280;27623;51.966;4.602;2023-03-20T07:01:27;63920.69;;;7.48;100.00
41636;BME280;27623;51.966;4.602;2023-03-20T07:03:53;63937.69;;;7.66;100.00
41636;BME280;27623;51.966;4.602;2023-03-20T07:06:19;63965.75;;;7.54;100.00
41636;BME280;27623;51.966;4.602;2023-03-20T07:08:47;63960.31;;;7.49;100.00
41636;BME280;27623;51.966;4.602;2023-03-20T07:11:15;63970.66;;;7.45;100.00
41636;BME280;27623;51.966;4.602;2023-03-20T07:13:40;63980.41;;;7.54;100.00
41636;BME280;27623;51.966;4.602;2023-03-20T07:16:06;63968.81;;;7.55;100.00
41636;BME280;27623;51.966;4.602;2023-03-20T07:18:32;63964.13;;;7.53;100.00
41636;BME280;27623;51.966;4.602;2023-03-20T07:21:01;63955.97;;;7.52;100.00
41636;BME280;27623;51.966;4.602;2023-03-20T07:23:28;63964.13;;;7.60;100.00
41636;BME280;27623;51.966;4.602;2023-03-20T07:25:53;63961.78;;;7.55;100.00
41636;BME280;27623;51.966;4.602;2023-03-20T07:28:21;63969.19;;;7.60;100.00
41636;BME280;27623;51.966;4.602;2023-03-20T07:30:49;63958.69;;;7.55;100.00
41636;BME280;27623;51.966;4.602;2023-03-20T07:33:15;63988.03;;;7.68;100.00
41636;BME280;27623;51.966;4.602;2023-03-20T07:35:40;63992.38;;;7.72;100.00
41636;BME280;27623;51.966;4.602;2023-03-20T07:38:08;63978.44;;;7.69;100.00
41636;BME280;27623;51.966;4.602;2023-03-20T07:40:33;63996.34;;;7.71;100.00
41636;BME280;27623;51.966;4.602;2023-03-20T07:42:59;63994.00;;;7.74;100.00
41636;BME280;27623;51.966;4.602;2023-03-20T07:45:25;64003.41;;;7.78;100.00
41636;BME280;27623;51.966;4.602;2023-03-20T07:47:51;63969.19;;;7.60;100.00
41636;BME280;27623;51.966;4.602;2023-03-20T07:50:16;63990.38;;;7.80;100.00
41636;BME280;27623;51.966;4.602;2023-03-20T07:52:50;63972.63;;;7.66;100.00
41636;BME280;27623;51.966;4.602;2023-03-20T07:55:18;63973.00;;;7.64;100.00
41636;BME280;27623;51.966;4.602;2023-03-20T07:57:43;63965.75;;;7.54;100.00
41636;BME280;27623;51.966;4.602;2023-03-20T08:00:10;63958.16;;;7.54;100.00
41636;BME280;27623;51.966;4.602;2023-03-20T08:02:35;63980.44;;;7.61;100.00
41636;BME280;27623;51.966;4.602;2023-03-20T08:05:01;63994.19;;;7.55;100.00
41636;BME280;27623;51.966;4.602;2023-03-20T08:07:26;63994.19;;;7.69;100.00
41636;BME280;27623;51.966;4.602;2023-03-20T08:09:54;64016.84;;;7.88;100.00
41636;BME280;27623;51.966;4.602;2023-03-20T08:12:19;63974.06;;;7.72;100.00
41636;BME280;27623;51.966;4.602;2023-03-20T08:14:47;63977.34;;;7.82;100.00
41636;BME280;27623;51.966;4.602;2023-03-20T08:17:13;63961.75;;;7.70;100.00
41636;BME280;27623;51.966;4.602;2023-03-20T08:19:38;64004.50;;;7.72;100.00
41636;BME280;27623;51.966;4.602;2023-03-20T08:22:04;63995.63;;;7.75;100.00
41636;BME280;27623;51.966;4.602;2023-03-20T08:24:31;63978.06;;;7.78;100.00
41636;BME280;27623;51.966;4.602;2023-03-20T08:26:57;63962.28;;;7.84;100.00
41636;BME280;27623;51.966;4.602;2023-03-20T08:29:27;63982.03;;;7.84;100.00
41636;BME280;27623;51.966;4.602;2023-03-20T08:31:55;63995.25;;;7.77;100.00
41636;BME280;27623;51.966;4.602;2023-03-20T08:34:22;63976.78;;;7.74;100.00
41636;BME280;27623;51.966;4.602;2023-03-20T08:36:50;63987.28;;;7.86;100.00
41636;BME280;27623;51.966;4.602;2023-03-20T08:39:16;63980.59;;;7.78;100.00
41636;BME280;27623;51.966;4.602;2023-03-20T08:41:42;63983.13;;;7.85;100.00
41636;BME280;27623;51.966;4.602;2023-03-20T08:44:12;64003.41;;;7.92;100.00
41636;BME280;27623;51.966;4.602;2023-03-20T08:46:37;64004.84;;;7.91;100.00
41636;BME280;27623;51.966;4.602;2023-03-20T08:49:04;63945.47;;;7.62;100.00
41636;BME280;27623;51.966;4.602;2023-03-20T08:51:30;63979.34;;;7.60;100.00
41636;BME280;27623;51.966;4.602;2023-03-20T08:53:55;64033.13;;;7.68;100.00
41636;BME280;27623;51.966;4.602;2023-03-20T08:56:21;63957.59;;;7.68;100.00
41636;BME280;27623;51.966;4.602;2023-03-20T08:58:46;64001.06;;;7.87;100.00
41636;BME280;27623;51.966;4.602;2023-03-20T09:01:12;63981.31;;;7.74;100.00
41636;BME280;27623;51.966;4.602;2023-03-20T09:03:39;64000.88;;;7.64;100.00
41636;BME280;27623;51.966;4.602;2023-03-20T09:06:06;63975.16;;;7.80;100.00
41636;BME280;27623;51.966;4.602;2023-03-20T09:08:32;63976.63;;;7.65;100.00
41636;BME280;27623;51.966;4.602;2023-03-20T09:10:58;63964.28;;;7.70;100.00
41636;BME280;27623;51.966;4.602;2023-03-20T09:13:23;63950.53;;;7.62;100.00
41636;BME280;27623;51.966;4.602;2023-03-20T09:15:50;63991.81;;;7.72;100.00
41636;BME280;27623;51.966;4.602;2023-03-20T09:18:16;63977.72;;;7.58;100.00
41636;BME280;27623;51.966;4.602;2023-03-20T09:20:41;63987.28;;;7.86;100.00
41636;BME280;27623;51.966;4.602;2023-03-20T09:23:07;63985.81;;;8.02;100.00
41636;BME280;27623;51.966;4.602;2023-03-20T09:25:32;63997.25;;;7.98;100.00
41636;BME280;27623;51.966;4.602;2023-03-20T09:27:57;63983.31;;;7.87;100.00
41636;BME280;27623;51.966;4.602;2023-03-20T09:30:23;64012.09;;;8.07;100.00
41636;BME280;27623;51.966;4.602;2023-03-20T09:32:50;64039.28;;;8.18;100.00
41636;BME280;27623;51.966;4.602;2023-03-20T09:35:16;64016.81;;;8.09;100.00
41636;BME280;27623;51.966;4.602;2023-03-20T09:37:42;64008.47;;;8.06;100.00
41636;BME280;27623;51.966;4.602;2023-03-20T09:40:07;63999.25;;;8.05;100.00
41636;BME280;27623;51.966;4.602;2023-03-20T09:45:17;64011.19;;;8.09;100.00
41636;BME280;27623;51.966;4.602;2023-03-20T09:47:59;64016.63;;;8.14;100.00
41636;BME280;27623;51.966;4.602;2023-03-20T09:50:35;64000.88;;;7.99;100.00
41636;BME280;27623;51.966;4.602;2023-03-20T09:53:19;64043.81;;;8.11;100.00
41636;BME280;27623;51.966;4.602;2023-03-20T09:55:50;64046.16;;;8.30;100.00
41636;BME280;27623;51.966;4.602;2023-03-20T09:58:24;64055.03;;;8.54;100.00
41636;BME280;27623;51.966;4.602;2023-03-20T10:00:51;64061.03;;;8.46;100.00
41636;BME280;27623;51.966;4.602;2023-03-20T10:03:35;64034.56;;;8.23;100.00
41636;BME280;27623;51.966;4.602;2023-03-20T10:06:11;64056.88;;;8.30;100.00
41636;BME280;27623;51.966;4.602;2023-03-20T10:08:38;64071.53;;;8.22;100.00
41636;BME280;27623;51.966;4.602;2023-03-20T10:22:47;64063.94;;;8.44;100.00
41636;BME280;27623;51.966;4.602;2023-03-20T10:25:22;64061.41;;;8.51;100.00
41636;BME280;27623;51.966;4.602;2023-03-20T10:28:00;64075.19;;;8.45;100.00
41636;BME280;27623;51.966;4.602;2023-03-20T10:41:28;64061.75;;;8.42;100.00
41636;BME280;27623;51.966;4.602;2023-03-20T10:43:57;64068.28;;;8.62;100.00
41636;BME280;27623;51.966;4.602;2023-03-20T10:46:33;64109.78;;;8.75;100.00
41636;BME280;27623;51.966;4.602;2023-03-20T10:51:51;64114.50;;;8.84;100.00
41636;BME280;27623;51.966;4.602;2023-03-20T10:54:39;64107.78;;;8.75;100.00
41636;BME280;27623;51.966;4.602;2023-03-20T10:57:12;64133.19;;;8.82;100.00
41636;BME280;27623;51.966;4.602;2023-03-20T10:59:43;64063.56;;;8.67;100.00
41636;BME280;27623;51.966;4.602;2023-03-20T11:02:18;64070.63;;;8.67;100.00
41636;BME280;27623;51.966;4.602;2023-03-20T11:04:44;64117.03;;;8.84;100.00
41636;BME280;27623;51.966;4.602;2023-03-20T11:07:33;64077.50;;;8.71;100.00
41636;BME280;27623;51.966;4.602;2023-03-20T11:12:31;64117.59;;;8.91;100.00
41636;BME280;27623;51.966;4.602;2023-03-20T11:14:59;64116.50;;;8.90;100.00
41636;BME280;27623;51.966;4.602;2023-03-20T11:17:29;64108.00;;;8.71;100.00
41636;BME280;27623;51.966;4.602;2023-03-20T11:20:02;64129.75;;;8.84;100.00
41636;BME280;27623;51.966;4.602;2023-03-20T11:22:31;64140.63;;;8.94;100.00
41636;BME280;27623;51.966;4.602;2023-03-20T11:24:59;64087.09;;;8.84;100.00
41636;BME280;27623;51.966;4.602;2023-03-20T11:27:31;64118.13;;;8.85;100.00
41636;BME280;27623;51.966;4.602;2023-03-20T11:29:59;64170.03;;;9.07;100.00
41636;BME280;27623;51.966;4.602;2023-03-20T11:32:35;64124.84;;;8.93;100.00
41636;BME280;27623;51.966;4.602;2023-03-20T11:37:45;64132.28;;;8.84;100.00
41636;BME280;27623;51.966;4.602;2023-03-20T11:40:15;64112.50;;;8.99;100.00
41636;BME280;27623;51.966;4.602;2023-03-20T11:45:26;64132.09;;;9.03;100.00
41636;BME280;27623;51.966;4.602;2023-03-20T11:47:56;64148.97;;;8.97;100.00
41636;BME280;27623;51.966;4.602;2023-03-20T11:50:41;64142.06;;;9.07;100.00
41636;BME280;27623;51.966;4.602;2023-03-20T11:58:28;64158.94;;;9.30;100.00
41636;BME280;27623;51.966;4.602;2023-03-20T12:00:55;64128.63;;;9.04;100.00
41636;BME280;27623;51.966;4.602;2023-03-20T12:03:40;64141.50;;;9.21;100.00
41636;BME280;27623;51.966;4.602;2023-03-20T12:06:07;64107.41;;;9.06;100.00
41636;BME280;27623;51.966;4.602;2023-03-20T12:08:40;64139.53;;;9.07;100.00
41636;BME280;27623;51.966;4.602;2023-03-20T12:11:37;64136.25;;;9.11;100.00
41636;BME280;27623;51.966;4.602;2023-03-20T12:14:16;64136.44;;;9.07;100.00
41636;BME280;27623;51.966;4.602;2023-03-20T12:16:46;64149.88;;;9.10;100.00
41636;BME280;27623;51.966;4.602;2023-03-20T12:19:18;64138.44;;;8.99;100.00
41636;BME280;27623;51.966;4.602;2023-03-20T12:21:58;64124.09;;;9.05;100.00
41636;BME280;27623;51.966;4.602;2023-03-20T12:24:42;64191.63;;;9.11;100.00
41636;BME280;27623;51.966;4.602;2023-03-20T12:27:19;64127.34;;;9.15;100.00
41636;BME280;27623;51.966;4.602;2023-03-20T12:30:35;64126.84;;;8.93;100.00
41636;BME280;27623;51.966;4.602;2023-03-20T12:32:51;64134.25;;;9.12;100.00
41636;BME280;27623;51.966;4.602;2023-03-20T12:35:28;64131.00;;;9.02;100.00
41636;BME280;27623;51.966;4.602;2023-03-20T12:37:54;64104.69;;;8.96;100.00
41636;BME280;27623;51.966;4.602;2023-03-20T12:40:23;64135.34;;;9.06;100.00
41636;BME280;27623;51.966;4.602;2023-03-20T12:43:08;64164.59;;;9.09;100.00
41636;BME280;27623;51.966;4.602;2023-03-20T12:45:40;64154.56;;;9.26;100.00
41636;BME280;27623;51.966;4.602;2023-03-20T12:48:49;64131.19;;;8.97;100.00
41636;BME280;27623;51.966;4.602;2023-03-20T12:56:44;64120.31;;;8.80;100.00
41636;BME280;27623;51.966;4.602;2023-03-20T12:59:21;64115.75;;;9.02;100.00
41636;BME280;27623;51.966;4.602;2023-03-20T13:01:54;64115.22;;;8.87;100.00
41636;BME280;27623;51.966;4.602;2023-03-20T13:07:05;64104.53;;;8.79;100.00
41636;BME280;27623;51.966;4.602;2023-03-20T13:12:18;64084.97;;;8.68;100.00
41636;BME280;27623;51.966;4.602;2023-03-20T13:23:19;64124.47;;;9.03;100.00
41636;BME280;27623;51.966;4.602;2023-03-20T13:28:57;64116.69;;;8.93;100.00
41636;BME280;27623;51.966;4.602;2023-03-20T13:37:07;64131.03;;;8.87;100.00
41636;BME280;27623;51.966;4.602;2023-03-20T13:39:38;64127.38;;;8.79;100.00
41636;BME280;27623;51.966;4.602;2023-03-20T13:42:13;64137.53;;;9.08;100.00
41636;BME280;27623;51.966;4.602;2023-03-20T13:44:40;64111.41;;;8.98;100.00
41636;BME280;27623;51.966;4.602;2023-03-20T13:47:23;64119.56;;;9.05;100.00
41636;BME280;27623;51.966;4.602;2023-03-20T13:52:45;64123.75;;;8.85;100.00
41636;BME280;27623;51.966;4.602;2023-03-20T14:00:50;64123.38;;;9.09;100.00
41636;BME280;27623;51.966;4.602;2023-03-20T14:03:34;64154.41;;;9.16;100.00
41636;BME280;27623;51.966;4.602;2023-03-20T14:06:15;64132.44;;;9.08;100.00
41636;BME280;27623;51.966;4.602;2023-03-20T14:08:47;64132.09;;;9.10;100.00
41636;BME280;27623;51.966;4.602;2023-03-20T14:13:58;64135.72;;;9.11;100.00
41636;BME280;27623;51.966;4.602;2023-03-20T14:16:28;64135.53;;;9.08;100.00
41636;BME280;27623;51.966;4.602;2023-03-20T14:19:16;64166.03;;;9.01;100.00
41636;BME280;27623;51.966;4.602;2023-03-20T14:21:47;64132.44;;;9.08;100.00
41636;BME280;27623;51.966;4.602;2023-03-20T14:24:15;64177.28;;;9.09;100.00
41636;BME280;27623;51.966;4.602;2023-03-20T14:26:47;64133.00;;;9.08;100.00
41636;BME280;27623;51.966;4.602;2023-03-20T14:31:39;64139.72;;;9.03;100.00
41636;BME280;27623;51.966;4.602;2023-03-20T14:42:36;64132.97;;;9.15;100.00
41636;BME280;27623;51.966;4.602;2023-03-20T14:45:17;64162.03;;;9.16;100.00
41636;BME280;27623;51.966;4.602;2023-03-20T14:48:08;64158.97;;;9.09;100.00
41636;BME280;27623;51.966;4.602;2023-03-20T14:50:52;64158.41;;;9.08;100.00
41636;BME280;27623;51.966;4.602;2023-03-20T14:53:26;64148.97;;;9.11;100.00
41636;BME280;27623;51.966;4.602;2023-03-20T15:01:57;64183.44;;;9.17;100.00
41636;BME280;27623;51.966;4.602;2023-03-20T15:06:56;64170.91;;;9.20;100.00
41636;BME280;27623;51.966;4.602;2023-03-20T15:09:28;64175.81;;;9.32;100.00
41636;BME280;27623;51.966;4.602;2023-03-20T15:11:56;64181.97;;;9.40;100.00
41636;BME280;27623;51.966;4.602;2023-03-20T15:14:32;64182.88;;;9.45;100.00
41636;BME280;27623;51.966;4.602;2023-03-20T15:17:00;64173.63;;;9.22;100.00
41636;BME280;27623;51.966;4.602;2023-03-20T15:19:26;64211.41;;;9.32;100.00
41636;BME280;27623;51.966;4.602;2023-03-20T15:21:53;64176.38;;;9.32;100.00
41636;BME280;27623;51.966;4.602;2023-03-20T15:24:28;64165.28;;;9.34;100.00
41636;BME280;27623;51.966;4.602;2023-03-20T15:26:58;64173.44;;;9.34;100.00
41636;BME280;27623;51.966;4.602;2023-03-20T15:29:25;64182.00;;;9.33;100.00
41636;BME280;27623;51.966;4.602;2023-03-20T15:31:58;64174.53;;;9.28;100.00
41636;BME280;27623;51.966;4.602;2023-03-20T15:34:29;64190.34;;;9.21;100.00